Ana Sayfa
METAR-TAF:

METAR-TAF

Havaalanları :

New Haven, Connecticut, Amerika Birleşik Devletleri

Enlem: 41-15-50N, Boylam: 072-53-14W, yükseklik: 4 m

Güncel hava durumu gözlemi

Rapor saat 19:53 UTC de 42 dakika önce yapıldı.
Rüzgar güneydan 9 kt
Sıcaklık 7°C
Nem 70%
Basınç 1015 hPa
Görüş mesafesi: 16.1 km
3400 ft yükseklikte parçalı çok bulutlu

METAR: KHVN 311953Z 19009KT 10SM BKN034 07/02 A2998 RMK AO2 SLP151 T00720017

Saat: 16:35 (20:35 UTC)


TAF: eksik

4.000'den fazla havaalanı için hava durumu gözlemleri ve tahminleri (METAR ve TAF raporları).

Kullanılabilir istasyonlar harita üzerinde sarı ve kırmızı noktalarla gösterilir.

İstasyonun adını görmek için fareyi noktanın üzerinde gezdirin.

Sonrasında hava gözlem ve tahminlerini görmek için tıklayın.

Haritayı değiştirmek için: yaklaştırmak için siyah artı işaretli yeşil düğmeye ve uzaklaştırmak için de eksi işaretli düğmeye hızla tıklayın; bitişik haritalar için yeşil okları kullanın.


METAR-TAF: